»·PEaware :: N4147T KCHD-KOLS

N4147T :: KCHD-KOLS

FLIGHT INFORMATION

Flight Status: Arrived
Operator: Privately registered:
United States
More flights under this callsign
Pilot: Colin P. (16825)
Aircraft: PIPER PA-28 CHEROKEE ARCHER
(P28A)
More flights by this aircraft type
Origin: KCHD Chandler Mun
United States
Destination: KOLS Nogales Intl
United States
More flights between these airports :: More routes between these airports
Route: +SACAT V16 TUS V395 KOLS
File this flight plan on PilotEdge
Remarks:
Altitude:
(Current/Filed)
11,000ft
Speed:
(Current/Filed)
120kts
Departed: 04-Aug-19 09:34 AM
Arrived: 04-Aug-19 10:52 AM
Distance/Time
Traveled:
121nm/1:18
Distance/Time
To Go:
Arrived

Flight Plot

Page will automatically refresh every two minutes.

Flight plan parsing failed; only flown route is shown


Map Options




Map Legend


Flown Route
Filed Route
Departure Airport
Arrival Airport
Navaid (VOR, NDB)
Fix

Horizontal Profiles

Position Reports

Time Latitude Longitude Heading Altitude Ground
Speed
04-Aug-19 09:20 33.272831 -111.812301 89 1231ft 0kts
04-Aug-19 09:21 33.272831 -111.812301 89 1231ft 0kts
04-Aug-19 09:22 33.272831 -111.812301 89 1231ft 0kts
04-Aug-19 09:23 33.272831 -111.812301 89 1231ft 0kts
04-Aug-19 09:24 33.272831 -111.812301 89 1231ft 0kts
04-Aug-19 09:25 33.272831 -111.812301 89 1231ft 0kts
04-Aug-19 09:25 33.272613 -111.812089 203 1232ft 4kts
04-Aug-19 09:27 33.272345 -111.809953 331 1226ft 1kts
04-Aug-19 09:28 33.268402 -111.815523 229 1228ft 31kts
04-Aug-19 09:28 33.266317 -111.818282 279 1228ft 2kts
04-Aug-19 09:29 33.265147 -111.820076 227 1229ft 14kts
04-Aug-19 09:31 33.264512 -111.820390 109 1227ft 0kts
04-Aug-19 09:31 33.264451 -111.820221 124 1227ft 0kts
04-Aug-19 09:32 33.264451 -111.820220 125 1227ft 0kts
04-Aug-19 09:33 33.268763 -111.813439 49 1295ft 73kts
04-Aug-19 09:34 33.284658 -111.796637 332 1944ft 88kts
04-Aug-19 09:35 33.272504 -111.821980 216 2463ft 99kts
04-Aug-19 09:36 33.255674 -111.847605 267 2914ft 97kts
04-Aug-19 09:37 33.244494 -111.872571 169 3557ft 93kts
04-Aug-19 09:38 33.223525 -111.856978 148 4270ft 87kts
04-Aug-19 09:39 33.201770 -111.843331 155 4941ft 88kts
04-Aug-19 09:40 33.178456 -111.833242 154 5643ft 88kts
04-Aug-19 09:41 33.156511 -111.820339 150 6299ft 87kts
04-Aug-19 09:42 33.134366 -111.807586 154 6929ft 87kts
04-Aug-19 09:43 33.112059 -111.795209 153 7563ft 86kts
04-Aug-19 09:44 33.089880 -111.782968 153 8154ft 87kts
04-Aug-19 09:45 33.067019 -111.772630 159 8775ft 83kts
04-Aug-19 09:46 33.045265 -111.762485 148 9317ft 84kts
04-Aug-19 09:47 33.023927 -111.747918 148 9797ft 89kts
04-Aug-19 09:48 33.001705 -111.735392 149 10317ft 86kts
04-Aug-19 09:49 32.978750 -111.724707 158 10732ft 92kts
04-Aug-19 09:50 32.954493 -111.711873 149 11047ft 103kts
04-Aug-19 09:51 32.927763 -111.695427 154 10990ft 112kts
04-Aug-19 09:52 32.899290 -111.680762 156 10972ft 109kts
04-Aug-19 09:53 32.871533 -111.666062 151 10964ft 108kts
04-Aug-19 09:54 32.843848 -111.651829 147 10956ft 107kts
04-Aug-19 09:55 32.817877 -111.634691 137 10971ft 104kts
04-Aug-19 09:56 32.795392 -111.611800 135 11018ft 106kts
04-Aug-19 09:57 32.772434 -111.588830 136 11031ft 110kts
04-Aug-19 09:58 32.748274 -111.565212 139 11016ft 110kts
04-Aug-19 09:59 32.724782 -111.541195 130 10992ft 110kts
04-Aug-19 10:00 32.701255 -111.517214 136 10979ft 110kts
04-Aug-19 10:01 32.677153 -111.494019 136 10983ft 109kts
04-Aug-19 10:02 32.653693 -111.470658 137 11001ft 109kts
04-Aug-19 10:03 32.630998 -111.446396 134 11001ft 109kts
04-Aug-19 10:04 32.607815 -111.422591 135 11002ft 109kts
04-Aug-19 10:05 32.584328 -111.399097 135 11004ft 109kts
04-Aug-19 10:06 32.560831 -111.375656 135 11004ft 110kts
04-Aug-19 10:07 32.537353 -111.352251 135 11005ft 110kts
04-Aug-19 10:08 32.514004 -111.328986 136 11006ft 110kts
04-Aug-19 10:09 32.490401 -111.305487 136 11006ft 110kts
04-Aug-19 10:10 32.466731 -111.281942 136 11006ft 110kts
04-Aug-19 10:11 32.443106 -111.258458 136 11006ft 110kts
04-Aug-19 10:12 32.419418 -111.234925 136 11006ft 110kts
04-Aug-19 10:13 32.395783 -111.211466 136 11006ft 110kts
04-Aug-19 10:14 32.372206 -111.188077 136 11006ft 109kts
04-Aug-19 10:15 32.348689 -111.164762 136 11006ft 109kts
04-Aug-19 10:16 32.325095 -111.141385 136 11006ft 109kts
04-Aug-19 10:17 32.301540 -111.118071 136 11011ft 109kts
04-Aug-19 10:18 32.278079 -111.094872 137 11023ft 109kts
04-Aug-19 10:19 32.254654 -111.071714 137 11033ft 108kts
04-Aug-19 10:20 32.231202 -111.048545 137 11042ft 108kts
04-Aug-19 10:21 32.207824 -111.025466 138 11049ft 108kts
04-Aug-19 10:22 32.184342 -111.002301 138 11055ft 108kts
04-Aug-19 10:23 32.160914 -110.979204 138 11060ft 108kts
04-Aug-19 10:24 32.137535 -110.956155 138 11061ft 109kts
04-Aug-19 10:25 32.114074 -110.933053 139 11062ft 109kts
04-Aug-19 10:26 32.088473 -110.916004 188 11062ft 110kts
04-Aug-19 10:27 32.057672 -110.920947 185 11065ft 111kts
04-Aug-19 10:28 32.026821 -110.925934 186 11066ft 111kts
04-Aug-19 10:29 31.996012 -110.931006 186 11067ft 111kts
04-Aug-19 10:30 31.965120 -110.936095 186 11067ft 111kts
04-Aug-19 10:31 31.933976 -110.941181 187 11005ft 115kts
04-Aug-19 10:32 31.901633 -110.947059 186 10865ft 118kts
04-Aug-19 10:33 31.870259 -110.952730 184 10892ft 111kts
04-Aug-19 10:34 31.839448 -110.956479 184 10902ft 112kts
04-Aug-19 10:35 31.808621 -110.962049 189 10922ft 110kts
04-Aug-19 10:36 31.778219 -110.967824 179 10934ft 111kts
04-Aug-19 10:37 31.747270 -110.971347 186 10947ft 112kts
04-Aug-19 10:38 31.716105 -110.977074 186 10959ft 112kts
04-Aug-19 10:39 31.684590 -110.981414 182 10786ft 117kts
04-Aug-19 10:40 31.650548 -110.983496 186 9882ft 124kts
04-Aug-19 10:41 31.616475 -110.990156 175 9018ft 115kts
04-Aug-19 10:42 31.588833 -110.969695 141 8207ft 123kts
04-Aug-19 10:43 31.559235 -110.947179 151 7085ft 127kts
04-Aug-19 10:44 31.529971 -110.929178 149 6866ft 112kts
04-Aug-19 10:45 31.503399 -110.908701 143 7004ft 114kts
04-Aug-19 10:46 31.474628 -110.890127 152 6481ft 121kts
04-Aug-19 10:47 31.445194 -110.869973 146 5562ft 126kts
04-Aug-19 10:48 31.419107 -110.868402 236 5095ft 95kts
04-Aug-19 10:49 31.401089 -110.876998 118 4822ft 105kts
04-Aug-19 10:50 31.410951 -110.856136 46 3939ft 70kts
04-Aug-19 10:51 31.416556 -110.850596 316 3900ft 3kts
04-Aug-19 10:52 31.418052 -110.850047 87 3900ft 4kts
04-Aug-19 10:53 31.417997 -110.849908 136 3900ft 0kts

Navigation Log

Ident Type
Flight plan parsing failed, navigation log unavailable